createdAt,value
2022-07-29T00:01:42.758Z,97433.19
2022-07-29T00:04:11.191Z,97430.47
2022-07-29T00:06:39.809Z,97427.78
2022-07-29T00:09:09.093Z,97418.81
2022-07-29T00:11:37.471Z,97422.34
2022-07-29T00:14:07.419Z,97415.53
2022-07-29T00:16:35.955Z,97408.72
2022-07-29T00:19:04.790Z,97414.38
2022-07-29T00:21:33.209Z,97415.19
2022-07-29T00:24:01.578Z,97407.53
2022-07-29T00:26:32.668Z,97406.97
2022-07-29T00:29:32.401Z,97404.50
2022-07-29T00:31:51.505Z,97397.66
2022-07-29T00:34:37.406Z,97404.13
2022-07-29T00:37:05.815Z,97402.75
2022-07-29T00:39:36.378Z,97394.03
2022-07-29T00:42:06.006Z,97400.50
2022-07-29T00:44:39.859Z,97400.97
2022-07-29T00:47:10.627Z,97399.56
2022-07-29T00:49:41.159Z,97389.19
2022-07-29T00:52:12.058Z,97385.09
2022-07-29T00:54:44.820Z,97382.03
2022-07-29T00:57:14.265Z,97381.69
2022-07-29T00:59:43.728Z,97377.56
2022-07-29T01:02:13.530Z,97379.09
2022-07-29T01:04:42.680Z,97388.28
2022-07-29T01:07:11.087Z,97395.78
2022-07-29T01:09:45.800Z,97400.03
2022-07-29T01:12:18.900Z,97398.03
2022-07-29T01:14:48.242Z,97399.34
2022-07-29T01:17:24.215Z,97393.34
2022-07-29T01:20:05.564Z,97397.91
2022-07-29T01:23:13.988Z,97393.19
2022-07-29T01:26:20.464Z,97384.38
2022-07-29T01:29:09.329Z,97384.63
2022-07-29T01:31:58.642Z,97382.38
2022-07-29T01:34:36.423Z,97375.34
2022-07-29T01:37:14.910Z,97375.56
2022-07-29T01:39:45.911Z,97375.81
2022-07-29T01:42:23.021Z,97363.78
2022-07-29T01:44:59.683Z,97368.63
2022-07-29T01:47:37.287Z,97370.72
2022-07-29T01:50:13.021Z,97364.16
2022-07-29T01:52:47.464Z,97361.09
2022-07-29T01:55:17.944Z,97361.09
2022-07-29T01:57:49.679Z,97360.97
2022-07-29T02:00:20.408Z,97355.56
2022-07-29T02:02:50.254Z,97360.63
2022-07-29T02:05:21.540Z,97362.47
2022-07-29T02:07:51.820Z,97358.59
2022-07-29T02:10:25.811Z,97359.88
2022-07-29T02:12:57.120Z,97352.69
2022-07-29T02:15:29.861Z,97356.66
2022-07-29T02:18:04.202Z,97348.00
2022-07-29T02:20:33.125Z,97342.81
2022-07-29T02:23:02.965Z,97341.16
2022-07-29T02:25:36.974Z,97333.72
2022-07-29T02:28:07.874Z,97343.28
2022-07-29T02:30:42.443Z,97342.69
2022-07-29T02:33:12.783Z,97342.69
2022-07-29T02:35:42.583Z,97343.75
2022-07-29T02:38:32.150Z,97342.31
2022-07-29T02:41:02.674Z,97347.16
2022-07-29T02:43:32.903Z,97357.13
2022-07-29T02:46:05.371Z,97359.22
2022-07-29T02:48:48.759Z,97355.94
2022-07-29T02:51:43.737Z,97358.88
2022-07-29T02:54:20.701Z,97353.09
2022-07-29T02:56:50.318Z,97360.63
2022-07-29T02:59:24.357Z,97355.69
2022-07-29T03:01:56.722Z,97357.78
2022-07-29T03:04:27.614Z,97356.38
2022-07-29T03:06:57.579Z,97359.31
2022-07-29T03:09:26.915Z,97363.28
2022-07-29T03:11:56.275Z,97371.63
2022-07-29T03:14:25.223Z,97370.44
2022-07-29T03:16:55.659Z,97363.63
2022-07-29T03:19:24.376Z,97361.63
2022-07-29T03:21:52.689Z,97364.31
2022-07-29T03:24:32.659Z,97365.81
2022-07-29T03:27:01.660Z,97362.72
2022-07-29T03:29:33.865Z,97369.38
2022-07-29T03:32:07.900Z,97370.69
2022-07-29T03:34:38.670Z,97370.31
2022-07-29T03:37:07.951Z,97377.59
2022-07-29T03:39:41.761Z,97365.38
2022-07-29T03:42:13.454Z,97371.81
2022-07-29T03:44:45.472Z,97372.88
2022-07-29T03:47:17.135Z,97368.78
2022-07-29T03:49:49.398Z,97371.47
2022-07-29T03:52:17.884Z,97378.75
2022-07-29T03:54:46.382Z,97371.09
2022-07-29T03:57:15.839Z,97369.22
2022-07-29T03:59:45.024Z,97363.00
2022-07-29T04:02:20.106Z,97362.16
2022-07-29T04:04:50.250Z,97357.59
2022-07-29T04:07:18.566Z,97364.06
2022-07-29T04:09:46.933Z,97365.91
2022-07-29T04:12:15.295Z,97366.75
2022-07-29T04:14:43.752Z,97367.78
2022-07-29T04:17:12.174Z,97381.28
2022-07-29T04:19:41.879Z,97361.34
2022-07-29T04:22:10.223Z,97365.91
2022-07-29T04:24:38.556Z,97369.47
2022-07-29T04:27:06.900Z,97367.56
2022-07-29T04:29:35.178Z,97372.72
2022-07-29T04:32:03.543Z,97370.88
2022-07-29T04:34:31.868Z,97378.50
2022-07-29T04:37:01.513Z,97379.34
2022-07-29T04:39:30.521Z,97382.06
2022-07-29T04:41:59.216Z,97382.84
2022-07-29T04:44:29.175Z,97378.06
2022-07-29T04:46:58.873Z,97376.19
2022-07-29T04:49:27.554Z,97376.78
2022-07-29T04:51:56.087Z,97378.63
2022-07-29T04:54:25.781Z,97377.59
2022-07-29T04:56:54.753Z,97382.78
2022-07-29T04:59:23.534Z,97381.72
2022-07-29T05:01:51.933Z,97386.06
2022-07-29T05:04:20.921Z,97378.56
2022-07-29T05:06:49.491Z,97391.00
2022-07-29T05:09:17.870Z,97394.94
2022-07-29T05:11:47.529Z,97402.81
2022-07-29T05:14:16.201Z,97406.94
2022-07-29T05:16:44.803Z,97411.28
2022-07-29T05:19:14.671Z,97417.06
2022-07-29T05:21:43.505Z,97428.25
2022-07-29T05:24:12.711Z,97429.66
2022-07-29T05:26:41.731Z,97430.25
2022-07-29T05:29:44.153Z,97424.03
2022-07-29T05:32:00.522Z,97421.31
2022-07-29T05:34:29.033Z,97419.44
2022-07-29T05:36:57.623Z,97427.34
2022-07-29T05:39:47.118Z,97428.13
2022-07-29T05:42:14.591Z,97437.09
2022-07-29T05:44:44.322Z,97440.63
2022-07-29T05:47:12.769Z,97440.16
2022-07-29T05:49:41.184Z,97433.91
2022-07-29T05:52:09.930Z,97437.56
2022-07-29T05:54:38.509Z,97442.28
2022-07-29T05:57:07.254Z,97431.84
2022-07-29T05:59:38.487Z,97434.91
2022-07-29T06:02:08.259Z,97433.19
2022-07-29T06:04:37.077Z,97436.22
2022-07-29T06:07:06.293Z,97435.53
2022-07-29T06:09:36.339Z,97443.34
2022-07-29T06:12:06.566Z,97450.31
2022-07-29T06:14:34.903Z,97443.75
2022-07-29T06:17:03.326Z,97447.53
2022-07-29T06:19:33.072Z,97444.94
2022-07-29T06:22:01.354Z,97443.22
2022-07-29T06:24:29.761Z,97452.88
2022-07-29T06:26:58.163Z,97449.78
2022-07-29T06:29:26.734Z,97449.09
2022-07-29T06:31:55.043Z,97451.94
2022-07-29T06:34:23.390Z,97453.69
2022-07-29T06:36:53.797Z,97453.03
2022-07-29T06:39:23.199Z,97455.03
2022-07-29T06:41:52.488Z,97449.72
2022-07-29T06:44:21.261Z,97453.16
2022-07-29T06:46:50.994Z,97454.06
2022-07-29T06:49:19.528Z,97450.41
2022-07-29T06:51:47.928Z,97458.44
2022-07-29T06:54:17.981Z,97453.69
2022-07-29T06:56:46.922Z,97457.94
2022-07-29T06:59:15.558Z,97464.03
2022-07-29T07:01:45.625Z,97465.66
2022-07-29T07:04:15.619Z,97471.84
2022-07-29T07:06:45.430Z,97463.78
2022-07-29T07:09:13.736Z,97462.81
2022-07-29T07:11:43.374Z,97457.03
2022-07-29T07:14:11.709Z,97458.53
2022-07-29T07:16:40.122Z,97468.50
2022-07-29T07:19:08.529Z,97461.97
2022-07-29T07:21:36.949Z,97467.13
2022-07-29T07:24:06.153Z,97460.34
2022-07-29T07:26:34.452Z,97463.47
2022-07-29T07:29:04.130Z,97462.59
2022-07-29T07:31:32.614Z,97458.97
2022-07-29T07:34:00.983Z,97454.31
2022-07-29T07:36:29.309Z,97454.22
2022-07-29T07:38:57.705Z,97452.81
2022-07-29T07:41:26.058Z,97451.91
2022-07-29T07:44:01.155Z,97447.75
2022-07-29T07:46:30.921Z,97447.66
2022-07-29T07:48:59.280Z,97441.88
2022-07-29T07:51:27.961Z,97443.63
2022-07-29T07:53:56.343Z,97446.72
2022-07-29T07:56:26.077Z,97443.28
2022-07-29T07:58:54.461Z,97444.28
2022-07-29T08:01:24.003Z,97444.88
2022-07-29T08:03:53.768Z,97448.00
2022-07-29T08:06:22.145Z,97448.88
2022-07-29T08:08:51.900Z,97447.94
2022-07-29T08:11:20.648Z,97446.94
2022-07-29T08:13:49.010Z,97442.72
2022-07-29T08:16:17.408Z,97448.81
2022-07-29T08:18:47.373Z,97451.34
2022-07-29T08:21:17.643Z,97444.88
2022-07-29T08:23:57.609Z,97445.25
2022-07-29T08:26:28.314Z,97442.84
2022-07-29T08:28:56.660Z,97438.56
2022-07-29T08:31:25.133Z,97435.59
2022-07-29T08:33:53.605Z,97437.88
2022-07-29T08:36:23.336Z,97442.84
2022-07-29T08:38:51.966Z,97433.66
2022-07-29T08:41:20.881Z,97446.00
2022-07-29T08:43:49.556Z,97440.03
2022-07-29T08:46:19.072Z,97447.75
2022-07-29T08:48:48.199Z,97443.94
2022-07-29T08:51:18.851Z,97440.19
2022-07-29T08:53:50.530Z,97431.75
2022-07-29T08:56:21.096Z,97438.03
2022-07-29T08:58:52.238Z,97443.28
2022-07-29T09:01:35.078Z,97426.59
2022-07-29T09:04:08.683Z,97437.81
2022-07-29T09:06:50.270Z,97437.25
2022-07-29T09:09:20.082Z,97437.78
2022-07-29T09:11:48.481Z,97432.00
2022-07-29T09:14:16.854Z,97436.63
2022-07-29T09:16:55.130Z,97436.34
2022-07-29T09:19:26.617Z,97434.66
2022-07-29T09:22:03.371Z,97434.63
2022-07-29T09:24:48.291Z,97429.69
2022-07-29T09:27:27.393Z,97434.81
2022-07-29T09:30:00.795Z,97435.34
2022-07-29T09:32:30.547Z,97437.47
2022-07-29T09:35:20.322Z,97433.88
2022-07-29T09:37:49.653Z,97427.28
2022-07-29T09:40:21.973Z,97427.75
2022-07-29T09:42:50.892Z,97425.41
2022-07-29T09:45:31.362Z,97425.63
2022-07-29T09:48:03.902Z,97422.19
2022-07-29T09:50:40.939Z,97416.03
2022-07-29T09:53:11.110Z,97413.41
2022-07-29T09:55:51.874Z,97402.69
2022-07-29T09:58:22.279Z,97398.72
2022-07-29T10:00:52.670Z,97405.16
2022-07-29T10:03:22.242Z,97390.13
2022-07-29T10:06:10.567Z,97393.34
2022-07-29T10:08:39.460Z,97392.31
2022-07-29T10:11:17.810Z,97393.69
2022-07-29T10:13:49.327Z,97399.09
2022-07-29T10:16:19.056Z,97400.66
2022-07-29T10:18:48.322Z,97389.31
2022-07-29T10:21:34.488Z,97393.38
2022-07-29T10:24:06.846Z,97398.84
2022-07-29T10:26:45.696Z,97404.56
2022-07-29T10:29:14.345Z,97406.13
2022-07-29T10:31:54.634Z,97395.66
2022-07-29T10:34:46.861Z,97398.09
2022-07-29T10:37:24.978Z,97395.28
2022-07-29T10:40:23.086Z,97393.50
2022-07-29T10:42:55.853Z,97386.88
2022-07-29T10:45:24.924Z,97386.81
2022-07-29T10:48:08.092Z,97389.94
2022-07-29T10:50:55.311Z,97394.59
2022-07-29T10:53:24.390Z,97387.41
2022-07-29T10:55:55.039Z,97390.88
2022-07-29T10:58:26.295Z,97388.97
2022-07-29T11:00:57.576Z,97383.16
2022-07-29T11:03:50.883Z,97391.59
2022-07-29T11:06:26.776Z,97388.84
2022-07-29T11:09:30.175Z,97388.13
2022-07-29T11:12:04.180Z,97389.34
2022-07-29T11:15:00.123Z,97383.19
2022-07-29T11:17:37.586Z,97375.53
2022-07-29T11:20:41.491Z,97379.47
2022-07-29T11:23:33.904Z,97378.38
2022-07-29T11:26:24.785Z,97378.97
2022-07-29T11:29:00.160Z,97386.09
2022-07-29T11:31:39.289Z,97380.47
2022-07-29T11:34:29.651Z,97379.50
2022-07-29T11:37:28.299Z,97375.84
2022-07-29T11:40:18.907Z,97376.38
2022-07-29T11:42:52.243Z,97366.00
2022-07-29T11:48:29.608Z,97366.00
2022-07-29T11:51:01.567Z,97366.19
2022-07-29T11:53:32.803Z,97361.78
2022-07-29T11:56:03.424Z,97355.69
2022-07-29T11:58:32.884Z,97355.75
2022-07-29T12:01:04.645Z,97352.94
2022-07-29T12:03:36.961Z,97351.09
2022-07-29T12:06:14.861Z,97354.44
2022-07-29T12:08:45.049Z,97354.13
2022-07-29T12:11:23.477Z,97354.44
2022-07-29T12:13:52.879Z,97357.09
2022-07-29T12:16:25.518Z,97351.28
2022-07-29T12:19:03.937Z,97345.66
2022-07-29T12:21:53.681Z,97349.72
2022-07-29T12:24:26.825Z,97352.72
2022-07-29T12:26:57.966Z,97354.63
2022-07-29T12:29:34.728Z,97354.03
2022-07-29T12:32:14.373Z,97346.84
2022-07-29T12:34:44.927Z,97343.78
2022-07-29T12:37:13.555Z,97350.34
2022-07-29T12:39:42.290Z,97344.91
2022-07-29T12:42:15.010Z,97339.44
2022-07-29T12:44:49.143Z,97332.47
2022-07-29T12:47:19.063Z,97332.59
2022-07-29T12:49:49.688Z,97332.25
2022-07-29T12:52:32.825Z,97336.78
2022-07-29T12:55:01.849Z,97338.06
2022-07-29T12:57:30.657Z,97335.53
2022-07-29T13:00:11.694Z,97327.81
2022-07-29T13:02:41.910Z,97326.50
2022-07-29T13:05:13.658Z,97323.69
2022-07-29T13:07:55.627Z,97319.50
2022-07-29T13:10:26.901Z,97315.88
2022-07-29T13:13:09.100Z,97310.06
2022-07-29T13:15:38.983Z,97305.63
2022-07-29T13:18:28.733Z,97304.19
2022-07-29T13:20:59.264Z,97300.91
2022-07-29T13:23:27.671Z,97308.25
2022-07-29T13:25:56.049Z,97307.78
2022-07-29T13:28:24.445Z,97309.69
2022-07-29T13:30:52.769Z,97309.16
2022-07-29T13:33:21.108Z,97303.97
2022-07-29T13:35:49.562Z,97299.28
2022-07-29T13:38:19.373Z,97300.63
2022-07-29T13:40:47.767Z,97296.47
2022-07-29T13:43:16.132Z,97295.59
2022-07-29T13:45:44.536Z,97296.63
2022-07-29T13:48:12.914Z,97298.16
2022-07-29T13:50:41.226Z,97289.59
2022-07-29T13:53:09.657Z,97281.75
2022-07-29T13:55:47.529Z,97289.63
2022-07-29T13:58:16.827Z,97278.03
2022-07-29T14:00:45.208Z,97271.09
2022-07-29T14:03:13.512Z,97258.66
2022-07-29T14:05:41.799Z,97263.34
2022-07-29T14:08:10.127Z,97255.41
2022-07-29T14:10:38.495Z,97257.03
2022-07-29T14:13:24.499Z,97249.59
2022-07-29T14:15:54.209Z,97244.81
2022-07-29T14:18:22.595Z,97246.53
2022-07-29T14:20:52.019Z,97249.09
2022-07-29T14:23:20.635Z,97255.41
2022-07-29T14:25:49.359Z,97243.28
2022-07-29T14:28:19.551Z,97234.72
2022-07-29T14:30:47.991Z,97242.56
2022-07-29T14:33:16.315Z,97246.84
2022-07-29T14:35:44.831Z,97246.56
2022-07-29T14:38:13.335Z,97245.94
2022-07-29T14:40:41.691Z,97244.81
2022-07-29T14:43:10.048Z,97240.75
2022-07-29T14:45:39.872Z,97256.13
2022-07-29T14:48:08.411Z,97248.78
2022-07-29T14:50:36.726Z,97246.34
2022-07-29T14:53:05.651Z,97246.13
2022-07-29T14:55:34.100Z,97243.97
2022-07-29T14:58:09.783Z,97245.72
2022-07-29T15:00:40.854Z,97246.63
2022-07-29T15:03:11.172Z,97253.88
2022-07-29T15:05:40.143Z,97250.72
2022-07-29T15:08:09.714Z,97248.06
2022-07-29T15:10:38.211Z,97256.34
2022-07-29T15:13:06.605Z,97251.75
2022-07-29T15:15:35.050Z,97254.91
2022-07-29T15:18:05.054Z,97256.91
2022-07-29T15:20:33.430Z,97253.47
2022-07-29T15:23:01.727Z,97246.72
2022-07-29T15:25:30.079Z,97251.19
2022-07-29T15:28:01.736Z,97253.22
2022-07-29T15:30:33.415Z,97247.25
2022-07-29T15:33:05.102Z,97245.19
2022-07-29T15:35:33.548Z,97239.25
2022-07-29T15:38:09.763Z,97238.31
2022-07-29T15:40:41.224Z,97243.66
2022-07-29T15:43:09.813Z,97238.28
2022-07-29T15:45:40.374Z,97240.25
2022-07-29T15:48:14.672Z,97236.44
2022-07-29T15:50:46.881Z,97235.13
2022-07-29T15:53:15.760Z,97236.00
2022-07-29T15:55:44.515Z,97236.06
2022-07-29T15:58:12.983Z,97242.16
2022-07-29T16:00:41.454Z,97240.00
2022-07-29T16:03:11.279Z,97240.06
2022-07-29T16:05:39.626Z,97239.03
2022-07-29T16:08:08.188Z,97235.25
2022-07-29T16:10:36.611Z,97236.44
2022-07-29T16:13:05.255Z,97239.22
2022-07-29T16:15:33.898Z,97240.94
2022-07-29T16:18:02.238Z,97242.91
2022-07-29T16:20:32.845Z,97234.19
2022-07-29T16:23:01.699Z,97238.66
2022-07-29T16:25:57.378Z,97245.00
2022-07-29T16:28:18.640Z,97244.25
2022-07-29T16:30:47.123Z,97249.50
2022-07-29T16:33:15.564Z,97251.72
2022-07-29T16:35:45.310Z,97248.75
2022-07-29T16:38:13.613Z,97241.41
2022-07-29T16:40:42.028Z,97241.16
2022-07-29T16:43:10.722Z,97242.84
2022-07-29T16:45:45.308Z,97242.56
2022-07-29T16:48:14.782Z,97245.38
2022-07-29T16:50:44.679Z,97243.53
2022-07-29T16:53:13.045Z,97255.63
2022-07-29T16:55:42.408Z,97243.88
2022-07-29T16:58:11.369Z,97247.78
2022-07-29T17:00:40.481Z,97251.41
2022-07-29T17:03:08.809Z,97249.84
2022-07-29T17:05:52.803Z,97253.72
2022-07-29T17:08:24.081Z,97258.66
2022-07-29T17:10:52.487Z,97266.94
2022-07-29T17:13:21.231Z,97267.78
2022-07-29T17:15:49.629Z,97266.19
2022-07-29T17:18:17.970Z,97269.25
2022-07-29T17:20:46.591Z,97271.22
2022-07-29T17:23:14.919Z,97280.56
2022-07-29T17:25:44.742Z,97282.81
2022-07-29T17:28:13.068Z,97284.72
2022-07-29T17:30:41.434Z,97289.41
2022-07-29T17:33:09.786Z,97289.97
2022-07-29T17:35:55.518Z,97293.28
2022-07-29T17:38:23.895Z,97292.53
2022-07-29T17:40:53.562Z,97300.75
2022-07-29T17:43:21.921Z,97304.63
2022-07-29T17:45:50.887Z,97312.81
2022-07-29T17:48:19.851Z,97300.28
2022-07-29T17:50:49.614Z,97307.94
2022-07-29T17:53:18.427Z,97305.50
2022-07-29T17:55:48.663Z,97315.34
2022-07-29T17:58:18.731Z,97309.38
2022-07-29T18:00:47.124Z,97306.66
2022-07-29T18:03:15.696Z,97316.50
2022-07-29T18:05:44.400Z,97326.34
2022-07-29T18:08:13.257Z,97321.97
2022-07-29T18:10:42.424Z,97319.78
2022-07-29T18:13:12.606Z,97325.53
2022-07-29T18:15:42.813Z,97324.72
2022-07-29T18:18:11.207Z,97328.56
2022-07-29T18:20:39.826Z,97327.47
2022-07-29T18:23:08.337Z,97336.47
2022-07-29T18:25:36.793Z,97333.47
2022-07-29T18:28:06.206Z,97328.81
2022-07-29T18:30:36.804Z,97332.63
2022-07-29T18:33:24.284Z,97342.72
2022-07-29T18:36:11.236Z,97349.53
2022-07-29T18:38:40.932Z,97353.88
2022-07-29T18:41:09.367Z,97353.00
2022-07-29T18:43:37.744Z,97351.09
2022-07-29T18:46:06.786Z,97359.53
2022-07-29T18:48:36.893Z,97366.06
2022-07-29T18:51:09.336Z,97372.06
2022-07-29T18:53:38.528Z,97370.09
2022-07-29T18:56:06.967Z,97385.38
2022-07-29T18:58:37.038Z,97393.25
2022-07-29T19:01:05.401Z,97392.94
2022-07-29T19:03:33.877Z,97396.47
2022-07-29T19:06:03.583Z,97406.75
2022-07-29T19:08:33.279Z,97417.66
2022-07-29T19:11:01.651Z,97431.25
2022-07-29T19:13:30.958Z,97438.31
2022-07-29T19:15:59.403Z,97443.19
2022-07-29T19:18:27.858Z,97450.19
2022-07-29T19:20:56.189Z,97453.41
2022-07-29T19:23:25.873Z,97459.06
2022-07-29T19:25:54.291Z,97459.53
2022-07-29T19:28:22.807Z,97463.56
2022-07-29T19:30:51.693Z,97479.31
2022-07-29T19:33:20.971Z,97488.25
2022-07-29T19:35:54.605Z,97491.72
2022-07-29T19:38:23.428Z,97491.63
2022-07-29T19:40:53.549Z,97495.38
2022-07-29T19:43:50.633Z,97506.19
2022-07-29T19:46:10.336Z,97503.69
2022-07-29T19:48:38.732Z,97503.88
2022-07-29T19:51:07.126Z,97501.94
2022-07-29T19:53:35.518Z,97497.75
2022-07-29T19:56:06.157Z,97508.84
2022-07-29T19:58:37.424Z,97504.69
2022-07-29T20:01:10.438Z,97504.84
2022-07-29T20:03:40.035Z,97500.41
2022-07-29T20:06:08.808Z,97501.41
2022-07-29T20:08:37.223Z,97512.47
2022-07-29T20:11:07.682Z,97509.13
2022-07-29T20:13:36.012Z,97509.06
2022-07-29T20:16:08.283Z,97501.91
2022-07-29T20:18:36.789Z,97508.91
2022-07-29T20:21:05.257Z,97505.06
2022-07-29T20:23:33.763Z,97512.06
2022-07-29T20:26:03.455Z,97514.09
2022-07-29T20:28:34.865Z,97527.13
2022-07-29T20:31:03.274Z,97530.59
2022-07-29T20:33:31.650Z,97532.97
2022-07-29T20:35:59.982Z,97529.09
2022-07-29T20:38:28.494Z,97536.38
2022-07-29T20:40:58.709Z,97549.38
2022-07-29T20:43:27.618Z,97544.44
2022-07-29T20:45:57.473Z,97548.72
2022-07-29T20:48:25.905Z,97550.00
2022-07-29T20:50:55.001Z,97546.97
2022-07-29T20:53:23.523Z,97557.50
2022-07-29T20:55:52.427Z,97555.28
2022-07-29T20:58:21.007Z,97550.34
2022-07-29T21:00:51.873Z,97551.66
2022-07-29T21:03:21.648Z,97549.69
2022-07-29T21:05:50.250Z,97552.06
2022-07-29T21:08:18.574Z,97550.66
2022-07-29T21:10:47.087Z,97554.91
2022-07-29T21:13:15.497Z,97548.31
2022-07-29T21:15:46.463Z,97550.13
2022-07-29T21:18:27.180Z,97563.56
2022-07-29T21:20:57.094Z,97556.66
2022-07-29T21:23:25.634Z,97568.47
2022-07-29T21:25:54.810Z,97575.69
2022-07-29T21:28:30.559Z,97570.41
2022-07-29T21:31:01.779Z,97578.94
2022-07-29T21:33:33.208Z,97574.47
2022-07-29T21:36:26.650Z,97584.28
2022-07-29T21:38:52.677Z,97598.78
2022-07-29T21:41:21.906Z,97591.25
2022-07-29T21:43:50.253Z,97593.03
2022-07-29T21:46:20.645Z,97592.09
2022-07-29T21:48:52.945Z,97594.94
2022-07-29T21:51:22.734Z,97594.00
2022-07-29T21:53:53.023Z,97596.81
2022-07-29T21:56:22.630Z,97600.47
2022-07-29T21:58:57.031Z,97598.91
2022-07-29T22:01:25.743Z,97608.56
2022-07-29T22:03:54.323Z,97602.44
2022-07-29T22:06:24.677Z,97605.25
2022-07-29T22:08:53.018Z,97596.19
2022-07-29T22:11:21.417Z,97601.47
2022-07-29T22:13:49.775Z,97608.44
2022-07-29T22:16:18.634Z,97601.47
2022-07-29T22:18:48.263Z,97607.81
2022-07-29T22:21:16.866Z,97596.84
2022-07-29T22:23:46.764Z,97601.31
2022-07-29T22:26:15.106Z,97601.53
2022-07-29T22:28:43.535Z,97597.88
2022-07-29T22:31:12.239Z,97600.19
2022-07-29T22:33:40.801Z,97603.59
2022-07-29T22:36:09.625Z,97601.00
2022-07-29T22:38:38.228Z,97596.84
2022-07-29T22:41:07.979Z,97602.97
2022-07-29T22:43:36.661Z,97593.88
2022-07-29T22:46:05.038Z,97594.34
2022-07-29T22:48:33.371Z,97585.28
2022-07-29T22:51:01.739Z,97591.94
2022-07-29T22:53:30.220Z,97582.66
2022-07-29T22:55:58.577Z,97577.13
2022-07-29T22:58:28.285Z,97574.88
2022-07-29T23:00:56.738Z,97585.09
2022-07-29T23:03:25.204Z,97578.50
2022-07-29T23:05:53.604Z,97571.03
2022-07-29T23:08:22.350Z,97567.94
2022-07-29T23:10:50.730Z,97561.13
2022-07-29T23:13:19.094Z,97568.84
2022-07-29T23:15:48.777Z,97559.34
2022-07-29T23:18:17.327Z,97558.13
2022-07-29T23:20:46.079Z,97553.38
2022-07-29T23:23:14.462Z,97556.53
2022-07-29T23:25:42.860Z,97557.63
2022-07-29T23:28:13.132Z,97552.88
2022-07-29T23:30:42.258Z,97556.03
2022-07-29T23:33:12.026Z,97553.56
2022-07-29T23:35:40.488Z,97547.59
2022-07-29T23:38:08.832Z,97552.38
2022-07-29T23:40:37.217Z,97554.69
2022-07-29T23:43:08.568Z,97542.47
2022-07-29T23:45:44.581Z,97537.50
2022-07-29T23:48:15.350Z,97533.41
2022-07-29T23:50:43.947Z,97536.31
2022-07-29T23:53:12.742Z,97525.97
2022-07-29T23:55:41.054Z,97528.66
2022-07-29T23:58:09.429Z,97530.75
